Time;durP1;ratioP1;P1;durP2;ratioP2;P2;SDS_P1;SDS_P2;PMS_P1;PMS_P2;Temp;Humidity;BMP_temperature;BMP_pressure;BME280_temperature;BME280_humidity;BME280_pressure;Samples;Min_cycle;Max_cycle;Signal;HPM_P1;HPM_P2
2021/07/07 00:01:50;;;;;;;9.57;9.07;;;15.20;99.90;;;;;;5011423;28;20496;-68
2021/07/07 00:04:17;;;;;;;11.13;10.13;;;15.20;99.90;;;;;;5012501;28;20450;-68
2021/07/07 00:06:44;;;;;;;9.60;9.00;;;15.20;99.90;;;;;;5012395;28;20453;-67
2021/07/07 00:09:10;;;;;;;9.73;9.00;;;15.10;99.90;;;;;;5012623;28;20927;-68
2021/07/07 00:11:37;;;;;;;10.20;9.57;;;15.10;99.90;;;;;;5012150;28;20842;-67
2021/07/07 00:14:04;;;;;;;11.07;10.40;;;15.10;99.90;;;;;;5012370;28;20453;-67
2021/07/07 00:16:32;;;;;;;10.33;9.40;;;15.10;99.90;;;;;;5012376;28;20442;-67
2021/07/07 00:18:58;;;;;;;10.30;9.37;;;15.00;99.90;;;;;;5012329;28;20448;-68
2021/07/07 00:21:25;;;;;;;10.10;9.60;;;15.00;99.90;;;;;;5012090;28;20469;-68
2021/07/07 00:23:52;;;;;;;10.13;8.90;;;15.00;99.90;;;;;;5012126;28;20867;-67
2021/07/07 00:26:18;;;;;;;8.77;8.37;;;15.00;99.90;;;;;;5012259;28;20442;-68
2021/07/07 00:28:45;;;;;;;9.00;8.60;;;15.00;99.90;;;;;;5012038;28;20472;-69
2021/07/07 00:31:12;;;;;;;8.80;8.30;;;14.90;99.90;;;;;;5011203;28;20477;-68
2021/07/07 00:33:40;;;;;;;10.03;9.10;;;14.90;99.90;;;;;;5012016;28;20442;-67
2021/07/07 00:36:06;;;;;;;8.80;8.10;;;14.80;99.90;;;;;;5011967;28;20457;-67
2021/07/07 00:38:33;;;;;;;8.63;8.10;;;14.80;99.90;;;;;;5012053;28;20457;-68
2021/07/07 00:41:00;;;;;;;9.80;9.10;;;14.80;99.90;;;;;;5011815;28;20828;-68
2021/07/07 00:43:26;;;;;;;10.13;9.00;;;14.80;99.90;;;;;;5011775;28;20477;-67
2021/07/07 00:45:53;;;;;;;8.83;8.20;;;14.70;99.90;;;;;;5011933;28;20811;-68
2021/07/07 00:48:20;;;;;;;8.77;8.33;;;14.70;99.90;;;;;;5011866;28;20454;-68
2021/07/07 00:50:50;;;;;;;8.53;8.03;;;14.70;99.90;;;;;;5011790;28;20805;-68
2021/07/07 00:53:18;;;;;;;9.13;8.20;;;14.70;99.90;;;;;;5011542;28;20446;-67
2021/07/07 00:55:46;;;;;;;8.60;8.20;;;14.70;99.90;;;;;;5011783;28;20453;-68
2021/07/07 00:58:13;;;;;;;9.40;8.80;;;14.70;99.90;;;;;;5011770;28;20454;-68
2021/07/07 01:00:40;;;;;;;9.23;8.63;;;14.70;99.90;;;;;;5011489;28;20478;-68
2021/07/07 01:03:08;;;;;;;8.63;8.10;;;14.70;99.90;;;;;;5011422;28;20481;-68
2021/07/07 01:05:35;;;;;;;8.93;8.43;;;14.70;99.90;;;;;;5011731;28;20820;-68
2021/07/07 01:08:03;;;;;;;14.73;9.53;;;14.70;99.90;;;;;;5011594;28;20450;-68
2021/07/07 01:10:29;;;;;;;8.00;7.47;;;14.70;99.90;;;;;;5011623;28;20980;-67
2021/07/07 01:12:56;;;;;;;9.60;8.90;;;14.70;99.90;;;;;;5011402;28;20446;-68
2021/07/07 01:15:23;;;;;;;9.83;9.00;;;14.70;99.90;;;;;;5011579;28;20441;-67
2021/07/07 01:17:51;;;;;;;8.70;8.20;;;14.70;99.90;;;;;;5011588;28;20472;-67
2021/07/07 01:20:20;;;;;;;8.57;7.83;;;14.70;99.90;;;;;;5011515;28;20472;-67
2021/07/07 01:22:48;;;;;;;8.03;7.70;;;14.70;99.90;;;;;;5011236;28;20482;-68
2021/07/07 01:25:17;;;;;;;8.10;7.77;;;14.70;99.90;;;;;;5011511;28;20454;-68
2021/07/07 01:27:45;;;;;;;9.47;8.67;;;14.70;99.90;;;;;;5011485;28;20446;-68
2021/07/07 01:30:15;;;;;;;9.70;8.90;;;14.70;99.90;;;;;;5011455;28;20462;-68
2021/07/07 01:32:42;;;;;;;8.77;8.20;;;14.70;99.90;;;;;;5011332;28;20437;-67
2021/07/07 01:35:10;;;;;;;10.40;9.60;;;14.60;99.90;;;;;;5011595;28;20776;-68
2021/07/07 01:37:37;;;;;;;9.60;9.00;;;14.60;99.90;;;;;;5011350;28;20450;-67
2021/07/07 01:40:07;;;;;;;9.33;8.73;;;14.60;99.90;;;;;;5011255;28;20473;-68
2021/07/07 01:42:33;;;;;;;8.83;8.13;;;14.60;99.90;;;;;;5011604;28;20481;-67
2021/07/07 01:45:00;;;;;;;9.47;8.93;;;14.60;99.90;;;;;;5015082;28;20441;-68
2021/07/07 01:47:27;;;;;;;10.70;9.70;;;14.60;99.90;;;;;;5015226;28;20611;-67
2021/07/07 01:49:54;;;;;;;11.13;10.23;;;14.60;99.90;;;;;;5014940;28;20842;-68
2021/07/07 01:52:20;;;;;;;9.83;9.13;;;14.60;99.90;;;;;;5014873;28;20446;-67
2021/07/07 01:54:47;;;;;;;9.90;9.30;;;14.60;99.90;;;;;;5015001;28;20453;-68
2021/07/07 01:57:15;;;;;;;10.40;9.60;;;14.60;99.90;;;;;;5014880;28;20473;-67
2021/07/07 01:59:42;;;;;;;9.53;8.93;;;14.50;99.90;;;;;;5014637;28;20482;-68
2021/07/07 02:02:08;;;;;;;9.60;9.00;;;14.50;99.90;;;;;;5014585;28;20450;-68
2021/07/07 02:04:35;;;;;;;9.70;9.10;;;14.50;99.90;;;;;;5014907;28;20453;-68
2021/07/07 02:07:02;;;;;;;10.13;9.23;;;14.50;99.90;;;;;;5014633;28;20449;-68
2021/07/07 02:09:29;;;;;;;12.77;10.43;;;14.50;99.90;;;;;;5014643;28;20446;-67
2021/07/07 02:11:55;;;;;;;10.97;9.83;;;14.50;99.90;;;;;;5014482;28;20453;-68
2021/07/07 02:14:23;;;;;;;10.20;9.50;;;14.50;99.90;;;;;;5014577;28;20449;-68
2021/07/07 02:16:50;;;;;;;9.80;8.80;;;14.50;99.90;;;;;;5014551;28;20449;-68
2021/07/07 02:19:17;;;;;;;11.63;8.60;;;14.60;99.90;;;;;;5014434;28;20472;-67
2021/07/07 02:21:43;;;;;;;8.93;8.13;;;14.60;99.90;;;;;;5014315;28;20469;-68
2021/07/07 02:24:10;;;;;;;9.77;8.97;;;14.60;99.90;;;;;;5014296;28;20477;-68
2021/07/07 02:26:37;;;;;;;10.17;9.43;;;14.70;99.90;;;;;;5014326;28;20982;-67
2021/07/07 02:29:04;;;;;;;12.37;8.63;;;14.70;99.90;;;;;;5014233;28;20544;-67
2021/07/07 02:31:33;;;;;;;9.43;8.20;;;14.70;99.90;;;;;;5013960;28;20481;-67
2021/07/07 02:33:59;;;;;;;9.90;8.90;;;14.60;99.90;;;;;;5014167;28;20441;-67
2021/07/07 02:36:26;;;;;;;8.73;8.23;;;14.60;99.90;;;;;;5014107;28;20448;-67
2021/07/07 02:38:53;;;;;;;9.37;8.57;;;14.60;99.90;;;;;;5014156;28;20935;-68
2021/07/07 02:41:20;;;;;;;9.37;8.47;;;14.60;99.90;;;;;;5013793;28;20835;-67
2021/07/07 02:43:46;;;;;;;9.87;9.27;;;14.60;99.90;;;;;;5013949;28;20482;-68
2021/07/07 02:46:13;;;;;;;11.17;9.70;;;14.60;99.90;;;;;;5014100;28;20453;-68
2021/07/07 02:48:41;;;;;;;8.83;8.20;;;14.60;99.90;;;;;;5013889;28;20457;-67
2021/07/07 02:51:08;;;;;;;11.43;10.50;;;14.60;99.90;;;;;;5013589;28;20462;-68
2021/07/07 02:53:35;;;;;;;8.80;8.30;;;14.60;99.90;;;;;;5013762;28;20441;-68
2021/07/07 02:56:01;;;;;;;10.87;9.87;;;14.50;99.90;;;;;;5013069;28;20445;-68
2021/07/07 02:58:28;;;;;;;9.90;9.07;;;14.60;99.90;;;;;;5013936;28;20449;-67
2021/07/07 03:00:55;;;;;;;9.17;8.30;;;14.60;99.90;;;;;;5013487;28;20474;-67
2021/07/07 03:03:23;;;;;;;9.97;9.07;;;14.50;99.90;;;;;;5013386;28;20484;-67
2021/07/07 03:05:53;;;;;;;8.53;7.93;;;14.50;99.90;;;;;;5013520;28;20446;-68
2021/07/07 03:08:21;;;;;;;13.13;9.80;;;14.50;99.90;;;;;;5013716;28;20453;-68
2021/07/07 03:10:48;;;;;;;14.37;9.37;;;14.50;99.90;;;;;;5013539;28;20800;-68
2021/07/07 03:13:16;;;;;;;11.20;10.20;;;14.50;99.90;;;;;;5013246;28;20557;-67
2021/07/07 03:15:44;;;;;;;13.03;11.27;;;14.50;99.90;;;;;;5013385;28;20475;-67
2021/07/07 03:18:11;;;;;;;11.80;9.80;;;14.50;99.90;;;;;;5013421;28;20446;-68
2021/07/07 03:20:41;;;;;;;10.23;9.30;;;14.40;99.90;;;;;;5013247;28;20466;-67
2021/07/07 03:23:10;;;;;;;10.73;9.60;;;14.50;99.90;;;;;;5012898;28;20987;-67
2021/07/07 03:25:37;;;;;;;10.97;9.70;;;14.50;99.90;;;;;;5013237;28;20453;-68
2021/07/07 03:28:05;;;;;;;9.93;9.13;;;14.50;99.90;;;;;;5013142;28;20452;-67
2021/07/07 03:30:32;;;;;;;11.00;10.20;;;14.50;99.90;;;;;;5013148;28;20468;-67
2021/07/07 03:32:59;;;;;;;10.67;9.73;;;14.50;99.90;;;;;;5012885;28;20472;-68
2021/07/07 03:35:27;;;;;;;10.53;9.50;;;14.60;99.90;;;;;;5012947;28;20944;-67
2021/07/07 03:37:54;;;;;;;10.20;9.20;;;14.60;99.90;;;;;;5013092;28;20472;-68
2021/07/07 03:40:23;;;;;;;11.30;10.10;;;14.60;99.90;;;;;;5012957;28;20994;-68
2021/07/07 03:42:50;;;;;;;14.77;10.53;;;14.60;99.90;;;;;;5012625;28;20449;-68
2021/07/07 03:45:19;;;;;;;9.73;9.13;;;14.70;99.90;;;;;;5012908;28;20543;-68
2021/07/07 03:47:46;;;;;;;10.53;9.70;;;14.70;99.90;;;;;;5012909;28;20448;-68
2021/07/07 03:50:13;;;;;;;9.70;9.10;;;14.70;99.90;;;;;;5012722;28;20827;-68
2021/07/07 03:52:40;;;;;;;11.33;10.37;;;14.70;99.90;;;;;;5012649;28;20453;-67
2021/07/07 03:55:08;;;;;;;10.27;9.60;;;14.70;99.90;;;;;;5012709;28;20815;-67
2021/07/07 03:57:36;;;;;;;10.50;9.63;;;14.70;99.90;;;;;;5012809;28;20449;-68
2021/07/07 04:00:05;;;;;;;10.70;9.97;;;14.70;99.90;;;;;;5012476;28;20481;-68
2021/07/07 04:02:32;;;;;;;12.07;11.23;;;14.80;99.90;;;;;;5012305;28;20449;-67
2021/07/07 04:04:58;;;;;;;11.27;10.20;;;14.80;99.90;;;;;;5012399;28;20477;-67
2021/07/07 04:07:25;;;;;;;11.17;10.20;;;14.80;99.90;;;;;;5012501;28;20446;-68
2021/07/07 04:09:52;;;;;;;10.67;9.90;;;14.90;99.90;;;;;;5012380;28;20489;-67
2021/07/07 04:12:18;;;;;;;11.53;10.57;;;14.90;99.90;;;;;;5012068;28;20450;-68
2021/07/07 04:14:46;;;;;;;11.73;10.83;;;14.90;99.90;;;;;;5012392;28;20518;-67
2021/07/07 04:17:13;;;;;;;11.07;10.47;;;15.00;99.90;;;;;;5012384;28;20550;-68
2021/07/07 04:19:40;;;;;;;11.50;10.80;;;15.00;99.90;;;;;;5012123;28;20458;-68
2021/07/07 04:22:06;;;;;;;13.60;12.17;;;15.10;99.90;;;;;;5012075;28;20540;-67
2021/07/07 04:24:33;;;;;;;11.83;10.93;;;15.10;99.90;;;;;;5012090;28;20485;-67
2021/07/07 04:27:00;;;;;;;11.87;11.13;;;15.20;99.90;;;;;;5012138;28;20445;-68
2021/07/07 04:29:27;;;;;;;11.53;10.63;;;15.30;99.90;;;;;;5012025;28;20808;-67
2021/07/07 04:31:57;;;;;;;12.43;11.50;;;15.40;99.90;;;;;;5011965;28;20450;-67
2021/07/07 04:34:24;;;;;;;11.27;10.57;;;15.50;99.90;;;;;;5012101;28;20826;-68
2021/07/07 04:36:51;;;;;;;12.83;11.70;;;15.60;99.90;;;;;;5012292;28;20520;-68
2021/07/07 04:39:19;;;;;;;13.27;12.23;;;15.60;99.90;;;;;;5011986;28;20450;-68
2021/07/07 04:41:45;;;;;;;13.17;11.70;;;15.70;99.90;;;;;;5011765;28;20468;-68
2021/07/07 04:44:12;;;;;;;12.27;11.30;;;15.80;99.90;;;;;;5011809;28;20548;-68
2021/07/07 04:46:39;;;;;;;13.90;12.70;;;15.90;99.90;;;;;;5011951;28;20449;-67
2021/07/07 04:49:07;;;;;;;13.73;12.73;;;15.90;99.90;;;;;;5011671;28;20441;-67
2021/07/07 04:51:35;;;;;;;13.47;12.37;;;16.00;99.90;;;;;;5011542;28;20469;-65
2021/07/07 04:54:02;;;;;;;12.77;11.97;;;16.00;99.90;;;;;;5011764;28;20438;-68
2021/07/07 04:56:28;;;;;;;13.10;12.10;;;16.00;99.90;;;;;;5011819;28;20947;-68
2021/07/07 04:58:55;;;;;;;14.93;13.60;;;16.10;99.90;;;;;;5011715;28;20446;-68
2021/07/07 05:01:22;;;;;;;13.97;13.17;;;16.10;99.90;;;;;;5011295;28;20562;-67
2021/07/07 05:03:49;;;;;;;13.30;12.70;;;16.20;99.90;;;;;;5011553;28;20481;-68
2021/07/07 05:06:17;;;;;;;14.07;13.10;;;16.20;99.90;;;;;;5011637;28;20508;-68
2021/07/07 05:08:43;;;;;;;15.87;14.50;;;16.30;99.90;;;;;;5011656;28;20446;-68
2021/07/07 05:11:11;;;;;;;13.90;13.10;;;16.40;99.90;;;;;;5011598;28;20461;-68
2021/07/07 05:13:38;;;;;;;14.40;13.13;;;16.50;99.90;;;;;;5011591;28;20453;-68
2021/07/07 05:16:05;;;;;;;13.77;13.07;;;16.60;99.90;;;;;;5011633;28;20954;-67
2021/07/07 05:18:32;;;;;;;13.80;13.00;;;16.70;99.90;;;;;;5013898;28;20446;-68
2021/07/07 05:20:59;;;;;;;15.00;14.07;;;16.80;99.90;;;;;;5015517;28;20469;-68
2021/07/07 05:23:27;;;;;;;14.50;13.60;;;16.90;99.90;;;;;;5015370;28;20460;-68
2021/07/07 05:25:54;;;;;;;14.73;13.83;;;17.10;99.90;;;;;;5015509;28;20460;-68
2021/07/07 05:28:20;;;;;;;13.90;12.93;;;17.20;99.90;;;;;;5015226;28;20445;-68
2021/07/07 05:30:47;;;;;;;14.90;13.43;;;17.40;99.90;;;;;;5015281;28;20466;-68
2021/07/07 05:33:14;;;;;;;14.40;13.70;;;17.70;99.90;;;;;;5015044;28;20442;-68
2021/07/07 05:35:41;;;;;;;14.37;13.57;;;18.10;99.90;;;;;;5015177;28;20442;-68
2021/07/07 05:38:09;;;;;;;14.47;13.60;;;18.40;99.90;;;;;;5015041;28;20829;-69
2021/07/07 05:40:37;;;;;;;14.87;14.00;;;18.60;99.90;;;;;;5015175;28;20481;-67
2021/07/07 05:43:04;;;;;;;14.90;14.10;;;18.80;99.90;;;;;;5014922;28;20445;-68
2021/07/07 05:45:31;;;;;;;15.07;14.03;;;18.90;99.90;;;;;;5015139;28;20488;-68
2021/07/07 05:47:59;;;;;;;15.30;14.33;;;19.00;99.90;;;;;;5015263;28;20456;-68
2021/07/07 05:50:26;;;;;;;15.27;14.30;;;19.20;99.90;;;;;;5014974;28;20556;-68
2021/07/07 05:52:54;;;;;;;15.53;14.30;;;19.40;99.90;;;;;;5014832;28;20788;-68
2021/07/07 05:55:21;;;;;;;14.83;14.10;;;19.60;99.90;;;;;;5014829;28;20823;-66
2021/07/07 05:57:49;;;;;;;14.93;14.13;;;19.80;99.90;;;;;;5014829;28;20441;-68
2021/07/07 06:00:19;;;;;;;15.63;14.77;;;19.90;99.90;;;;;;5073718;23;20485;-64
2021/07/07 06:02:48;;;;;;;16.57;15.67;;;20.00;99.90;;;;;;5034178;28;20448;-67
2021/07/07 06:05:15;;;;;;;17.23;16.13;;;20.10;99.90;;;;;;5034464;28;20487;-67
2021/07/07 06:07:42;;;;;;;16.27;15.30;;;20.30;99.90;;;;;;5034431;28;20441;-67
2021/07/07 06:10:13;;;;;;;16.50;15.53;;;20.30;99.90;;;;;;5034564;28;20461;-67
2021/07/07 06:12:40;;;;;;;15.90;15.10;;;20.40;99.90;;;;;;5034195;28;20437;-66
2021/07/07 06:15:10;;;;;;;16.77;15.80;;;20.50;99.90;;;;;;5034272;28;20445;-66
2021/07/07 06:17:38;;;;;;;16.90;15.80;;;20.50;99.90;;;;;;5034262;28;20441;-66
2021/07/07 06:20:06;;;;;;;41.50;17.13;;;20.50;99.90;;;;;;5034087;28;20469;-66
2021/07/07 06:22:33;;;;;;;16.50;15.80;;;20.60;99.90;;;;;;5033926;28;20449;-66
2021/07/07 06:24:59;;;;;;;16.57;15.77;;;20.60;99.90;;;;;;5034180;28;20472;-66
2021/07/07 06:27:26;;;;;;;17.23;15.80;;;20.70;99.90;;;;;;5034125;28;20810;-66
2021/07/07 06:29:53;;;;;;;17.10;16.10;;;20.70;99.90;;;;;;5032697;28;20448;-66
2021/07/07 06:32:21;;;;;;;16.70;15.97;;;20.80;99.90;;;;;;5033681;28;20444;-66
2021/07/07 06:34:48;;;;;;;16.80;15.80;;;20.90;99.90;;;;;;5033803;28;20441;-66
2021/07/07 06:37:14;;;;;;;19.00;17.00;;;20.80;99.90;;;;;;5033870;28;20449;-66
2021/07/07 06:39:41;;;;;;;17.17;16.17;;;20.90;99.90;;;;;;5033747;28;20460;-66
2021/07/07 06:42:08;;;;;;;15.73;15.00;;;20.90;99.90;;;;;;5033668;28;20438;-66
2021/07/07 06:44:34;;;;;;;17.07;16.13;;;21.00;99.90;;;;;;5033676;28;20997;-66
2021/07/07 06:47:01;;;;;;;18.13;16.77;;;21.10;99.90;;;;;;5033540;28;20449;-66
2021/07/07 06:49:29;;;;;;;17.80;16.57;;;21.10;99.90;;;;;;5033676;28;20438;-66
2021/07/07 06:51:56;;;;;;;15.90;15.20;;;21.10;99.90;;;;;;5033348;28;20838;-66
2021/07/07 06:54:22;;;;;;;17.03;15.87;;;21.20;99.90;;;;;;5033634;28;20437;-66
2021/07/07 06:56:49;;;;;;;17.00;16.20;;;21.30;99.90;;;;;;5033595;28;20445;-66
2021/07/07 06:59:16;;;;;;;16.50;15.50;;;21.30;99.90;;;;;;5033481;28;20797;-66
2021/07/07 07:01:43;;;;;;;16.13;15.20;;;21.20;99.90;;;;;;5032972;28;20477;-66
2021/07/07 07:04:09;;;;;;;17.10;16.20;;;21.10;99.90;;;;;;5033394;28;20481;-66
2021/07/07 07:06:37;;;;;;;16.40;15.30;;;20.90;99.90;;;;;;5033336;28;20456;-66
2021/07/07 07:09:04;;;;;;;16.07;15.27;;;20.70;99.90;;;;;;5033207;28;20449;-66
2021/07/07 07:11:31;;;;;;;16.40;15.60;;;20.50;99.90;;;;;;5032919;28;20460;-66
2021/07/07 07:13:58;;;;;;;16.23;15.37;;;20.50;99.90;;;;;;5033164;28;20826;-66
2021/07/07 07:16:25;;;;;;;18.00;16.67;;;20.40;99.90;;;;;;5033079;28;20934;-66
2021/07/07 07:18:52;;;;;;;16.90;16.00;;;20.60;99.90;;;;;;5033134;28;20445;-66
2021/07/07 07:21:19;;;;;;;16.17;15.47;;;20.70;99.90;;;;;;5032920;28;20461;-66
2021/07/07 07:23:47;;;;;;;17.43;15.93;;;20.80;99.90;;;;;;5032844;28;20456;-66
2021/07/07 07:26:13;;;;;;;16.50;15.70;;;20.90;99.90;;;;;;5033020;28;20453;-66
2021/07/07 07:28:42;;;;;;;16.00;15.13;;;20.90;99.90;;;;;;5032914;28;20441;-66
2021/07/07 07:31:08;;;;;;;17.67;16.43;;;20.90;99.90;;;;;;5032639;28;20461;-66
2021/07/07 07:33:35;;;;;;;17.90;16.70;;;21.00;99.90;;;;;;5032900;28;20453;-66
2021/07/07 07:36:02;;;;;;;16.93;16.13;;;21.00;99.90;;;;;;5032740;28;20437;-66
2021/07/07 07:38:30;;;;;;;18.07;16.70;;;20.90;99.90;;;;;;5032857;28;20814;-66
2021/07/07 07:40:59;;;;;;;17.10;16.20;;;20.80;99.90;;;;;;5032414;28;20469;-66
2021/07/07 07:43:26;;;;;;;17.20;16.20;;;20.90;99.90;;;;;;5032494;28;20467;-66
2021/07/07 07:45:55;;;;;;;16.87;15.43;;;21.00;99.90;;;;;;5032538;28;20990;-66
2021/07/07 07:48:23;;;;;;;16.23;15.43;;;21.10;99.90;;;;;;5032523;28;20908;-66
2021/07/07 07:50:49;;;;;;;16.13;15.43;;;21.10;99.90;;;;;;5032500;28;20469;-66
2021/07/07 07:53:16;;;;;;;16.70;15.80;;;21.20;99.90;;;;;;5032319;28;20445;-66
2021/07/07 07:55:43;;;;;;;16.10;15.40;;;21.30;99.90;;;;;;5032515;28;20443;-66
2021/07/07 07:58:17;;;;;;;17.60;16.40;;;21.30;99.90;;;;;;5032383;28;20452;-66
2021/07/07 08:00:44;;;;;;;17.87;16.80;;;21.40;99.90;;;;;;5032207;28;20481;-66
2021/07/07 08:03:10;;;;;;;16.87;16.17;;;21.50;99.90;;;;;;5031926;28;20930;-66
2021/07/07 08:05:37;;;;;;;16.20;15.30;;;21.60;99.90;;;;;;5032156;28;20477;-66
2021/07/07 08:08:04;;;;;;;17.10;16.13;;;21.70;99.90;;;;;;5032144;28;20818;-66
2021/07/07 08:10:31;;;;;;;17.17;16.00;;;21.90;99.90;;;;;;5032097;28;20483;-66
2021/07/07 08:12:58;;;;;;;16.00;15.30;;;22.00;99.90;;;;;;5032122;28;20452;-66
2021/07/07 08:15:27;;;;;;;16.73;15.90;;;22.00;99.90;;;;;;5031897;28;20448;-66
2021/07/07 08:17:56;;;;;;;16.57;15.57;;;22.10;99.90;;;;;;5032005;28;20445;-66
2021/07/07 08:20:23;;;;;;;16.67;15.67;;;22.10;99.90;;;;;;5031819;28;20827;-66
2021/07/07 08:22:51;;;;;;;16.37;15.57;;;22.30;99.90;;;;;;5031754;28;20449;-66
2021/07/07 08:25:18;;;;;;;16.60;15.80;;;22.40;99.90;;;;;;5031833;28;20572;-66
2021/07/07 08:27:46;;;;;;;16.87;15.83;;;22.40;99.90;;;;;;5031822;28;20452;-66
2021/07/07 08:30:14;;;;;;;16.43;15.73;;;22.50;99.90;;;;;;5031752;28;20841;-66
2021/07/07 08:32:43;;;;;;;16.60;15.70;;;22.70;99.90;;;;;;5031580;28;20445;-66
2021/07/07 08:35:11;;;;;;;16.53;15.43;;;22.80;99.90;;;;;;5031725;28;20437;-66
2021/07/07 08:37:39;;;;;;;16.40;15.77;;;22.80;99.90;;;;;;5031815;28;20524;-66
2021/07/07 08:40:07;;;;;;;18.70;17.40;;;23.10;99.90;;;;;;5031474;28;20488;-66
2021/07/07 08:42:36;;;;;;;16.63;15.63;;;23.20;99.60;;;;;;5031189;28;20440;-68
2021/07/07 08:45:05;;;;;;;17.10;16.07;;;23.20;99.70;;;;;;5031332;28;20477;-66
2021/07/07 08:47:31;;;;;;;18.93;17.90;;;23.30;98.70;;;;;;5031567;28;20556;-67
2021/07/07 08:49:59;;;;;;;17.97;16.67;;;23.40;98.50;;;;;;5031371;28;20445;-66
2021/07/07 08:52:26;;;;;;;18.00;16.73;;;23.40;98.20;;;;;;5030669;28;20453;-66
2021/07/07 08:54:53;;;;;;;17.00;16.30;;;23.40;96.70;;;;;;5031463;28;20441;-66
2021/07/07 08:57:21;;;;;;;17.17;16.37;;;23.40;96.30;;;;;;5031341;28;20796;-66
2021/07/07 08:59:48;;;;;;;18.00;17.10;;;23.60;96.20;;;;;;5031244;28;20816;-66
2021/07/07 09:02:15;;;;;;;17.53;16.40;;;23.80;95.60;;;;;;5031276;28;20503;-66
2021/07/07 09:04:44;;;;;;;19.13;17.87;;;24.00;93.50;;;;;;5031279;28;20846;-66
2021/07/07 09:07:16;;;;;;;17.50;16.53;;;24.40;93.10;;;;;;5031286;28;20448;-67
2021/07/07 09:09:44;;;;;;;17.53;16.77;;;24.70;92.50;;;;;;5031207;28;20830;-67
2021/07/07 09:12:16;;;;;;;17.53;16.83;;;24.70;91.60;;;;;;5030984;28;20453;-67
2021/07/07 09:14:43;;;;;;;17.63;16.43;;;24.60;89.40;;;;;;5031247;28;20452;-66
2021/07/07 09:17:12;;;;;;;17.90;17.07;;;24.60;87.20;;;;;;5031368;28;20516;-67
2021/07/07 09:19:39;;;;;;;17.23;16.33;;;24.50;84.20;;;;;;5031071;28;20456;-67
2021/07/07 09:22:06;;;;;;;18.07;17.30;;;24.60;83.70;;;;;;5031038;28;20485;-67
2021/07/07 09:24:36;;;;;;;17.80;16.90;;;24.60;83.50;;;;;;5031154;28;20492;-67
2021/07/07 09:27:05;;;;;;;17.87;16.87;;;24.50;84.30;;;;;;5031205;28;20444;-67
2021/07/07 09:29:34;;;;;;;19.00;18.03;;;24.30;89.80;;;;;;5031151;28;20453;-67
2021/07/07 09:32:14;;;;;;;17.33;16.70;;;24.40;90.70;;;;;;5030699;28;20827;-66
2021/07/07 09:34:43;;;;;;;18.83;17.90;;;24.40;83.20;;;;;;5031122;28;20448;-66
2021/07/07 09:37:10;;;;;;;18.30;17.30;;;24.50;81.20;;;;;;5031088;28;20441;-66
2021/07/07 09:39:38;;;;;;;17.90;17.07;;;24.50;80.10;;;;;;5031093;28;20939;-67
2021/07/07 09:42:05;;;;;;;17.90;16.93;;;25.00;77.80;;;;;;5030825;28;20449;-67
2021/07/07 09:44:34;;;;;;;18.43;17.33;;;25.30;74.80;;;;;;5030886;28;20452;-66
2021/07/07 09:47:05;;;;;;;17.77;16.67;;;25.30;71.20;;;;;;5030933;28;20445;-66
2021/07/07 09:49:32;;;;;;;17.70;16.90;;;25.10;72.50;;;;;;5031230;28;20456;-67
2021/07/07 09:51:59;;;;;;;18.80;17.93;;;25.20;71.60;;;;;;5030645;28;20545;-67
2021/07/07 09:54:26;;;;;;;24.70;19.80;;;25.40;70.30;;;;;;5030921;28;20449;-67
2021/07/07 09:56:54;;;;;;;18.00;17.30;;;25.80;67.60;;;;;;5030956;28;20448;-67
2021/07/07 09:59:21;;;;;;;18.70;17.90;;;26.30;63.90;;;;;;5031026;28;20448;-66
2021/07/07 10:01:48;;;;;;;20.10;19.00;;;26.60;60.90;;;;;;5030400;28;20477;-66
2021/07/07 10:04:17;;;;;;;18.97;18.00;;;26.70;59.20;;;;;;5032524;28;20445;-66
2021/07/07 10:06:44;;;;;;;18.90;17.93;;;26.50;59.40;;;;;;5034449;28;20658;-66
2021/07/07 10:09:11;;;;;;;19.80;18.70;;;26.40;59.50;;;;;;5034464;28;20450;-66
2021/07/07 10:11:38;;;;;;;18.47;17.30;;;26.40;58.90;;;;;;5034085;28;20469;-67
2021/07/07 10:14:11;;;;;;;17.90;17.10;;;26.20;58.80;;;;;;5034390;28;20926;-67
2021/07/07 10:16:38;;;;;;;19.80;18.70;;;26.30;58.10;;;;;;5034308;28;20441;-66
2021/07/07 10:19:06;;;;;;;19.10;18.20;;;26.60;58.40;;;;;;5034171;28;20919;-66
2021/07/07 10:21:33;;;;;;;18.80;17.90;;;26.60;57.40;;;;;;5033767;28;20465;-66
2021/07/07 10:24:00;;;;;;;19.00;18.00;;;26.80;56.80;;;;;;5034001;28;20445;-67
2021/07/07 10:26:27;;;;;;;18.23;17.40;;;27.00;55.80;;;;;;5033763;28;20491;-66
2021/07/07 10:28:54;;;;;;;19.00;17.87;;;27.20;55.10;;;;;;5033967;28;20444;-66
2021/07/07 10:31:28;;;;;;;19.03;18.13;;;27.20;53.70;;;;;;5033761;28;20514;-66
2021/07/07 10:34:01;;;;;;;19.40;18.53;;;27.00;52.50;;;;;;5033988;28;20814;-66
2021/07/07 10:36:29;;;;;;;18.40;17.50;;;27.20;54.10;;;;;;5033978;28;20448;-66
2021/07/07 10:38:59;;;;;;;18.83;17.93;;;27.10;52.50;;;;;;5033952;28;20456;-66
2021/07/07 10:41:52;;;;;;;18.93;17.80;;;27.10;53.00;;;;;;5033546;28;20465;-66
2021/07/07 10:44:52;;;;;;;19.47;18.57;;;27.00;53.50;;;;;;5010861;28;20496;-66
2021/07/07 10:47:38;;;;;;;19.43;18.43;;;27.20;52.60;;;;;;4934290;29;20437;-67
2021/07/07 10:50:07;;;;;;;19.53;18.73;;;27.80;52.90;;;;;;4934105;29;20517;-66
2021/07/07 10:52:38;;;;;;;19.40;18.30;;;28.10;51.10;;;;;;4992044;28;20441;-66
2021/07/07 10:55:08;;;;;;;19.43;18.40;;;28.40;50.80;;;;;;5033589;28;20514;-67
2021/07/07 10:57:39;;;;;;;19.63;18.83;;;28.70;50.70;;;;;;5033565;28;20450;-66
2021/07/07 11:00:10;;;;;;;20.67;19.00;;;28.30;49.30;;;;;;5033381;28;20846;-67
2021/07/07 11:02:38;;;;;;;19.40;18.40;;;28.30;49.10;;;;;;5033311;28;20970;-66
2021/07/07 11:05:08;;;;;;;19.20;18.40;;;28.10;49.30;;;;;;5033349;28;20783;-66
2021/07/07 11:07:39;;;;;;;18.57;17.77;;;28.00;49.60;;;;;;5033473;28;20540;-66
2021/07/07 11:10:12;;;;;;;18.97;18.03;;;28.10;49.90;;;;;;5033138;28;20480;-67
2021/07/07 11:13:14;;;;;;;18.90;18.13;;;28.40;50.30;;;;;;5033128;28;20449;-66
2021/07/07 11:15:43;;;;;;;19.07;18.30;;;28.60;50.10;;;;;;5032547;28;20852;-66
2021/07/07 11:18:19;;;;;;;18.77;17.97;;;29.00;48.20;;;;;;5033190;28;20445;-67
2021/07/07 11:21:00;;;;;;;19.20;18.37;;;28.80;48.60;;;;;;5033108;28;20809;-67
2021/07/07 11:23:27;;;;;;;19.93;19.03;;;29.40;48.60;;;;;;5033061;28;20445;-66
2021/07/07 11:25:54;;;;;;;19.73;18.83;;;29.70;48.60;;;;;;5032943;28;20498;-67
2021/07/07 11:28:21;;;;;;;19.60;18.70;;;29.70;46.60;;;;;;5032965;28;20503;-66
2021/07/07 11:30:48;;;;;;;20.17;19.23;;;29.90;45.90;;;;;;5032873;28;20465;-66
2021/07/07 11:33:16;;;;;;;19.90;19.20;;;30.80;45.90;;;;;;5032751;28;20457;-67
2021/07/07 11:35:46;;;;;;;20.80;19.70;;;32.00;44.50;;;;;;5032772;28;20439;-66
2021/07/07 11:38:14;;;;;;;19.50;18.70;;;32.40;42.20;;;;;;5032909;28;20487;-66
2021/07/07 11:40:42;;;;;;;19.73;18.92;;;33.60;42.00;;;;;;5032741;28;20456;-66
2021/07/07 11:43:10;;;;;;;20.50;19.70;;;35.00;38.50;;;;;;5032386;28;20212;-66
2021/07/07 11:45:39;;;;;;;20.90;20.00;;;35.10;37.90;;;;;;5032551;28;20222;-66
2021/07/07 11:48:10;;;;;;;20.80;19.80;;;36.50;37.00;;;;;;5032561;28;20198;-67
2021/07/07 11:50:42;;;;;;;19.95;19.15;;;37.10;35.00;;;;;;5032527;28;20225;-66
2021/07/07 11:53:09;;;;;;;21.00;20.10;;;35.60;34.90;;;;;;5032307;28;20213;-67
2021/07/07 11:55:48;;;;;;;20.17;19.30;;;33.70;36.70;;;;;;5032491;28;20206;-67
2021/07/07 11:58:20;;;;;;;21.07;20.07;;;33.00;38.20;;;;;;5032477;28;20451;-67
2021/07/07 12:00:47;;;;;;;20.33;19.60;;;31.90;39.00;;;;;;5032786;28;20486;-66
2021/07/07 12:03:15;;;;;;;20.57;19.67;;;32.80;40.00;;;;;;5032241;28;20452;-66
2021/07/07 12:05:53;;;;;;;20.17;19.07;;;33.10;38.30;;;;;;5032327;28;20487;-65
2021/07/07 12:08:21;;;;;;;20.80;19.80;;;32.20;38.60;;;;;;5032227;28;20444;-65
2021/07/07 12:10:49;;;;;;;21.37;20.47;;;30.70;39.80;;;;;;5032147;28;20891;-65
2021/07/07 12:13:21;;;;;;;21.37;20.33;;;29.80;41.90;;;;;;5031940;28;20811;-65
2021/07/07 12:15:48;;;;;;;21.43;20.53;;;29.50;43.10;;;;;;5032030;28;20436;-65
2021/07/07 12:18:24;;;;;;;19.70;18.70;;;28.90;44.60;;;;;;5032176;28;20449;-65
2021/07/07 12:20:52;;;;;;;20.73;19.73;;;28.70;44.90;;;;;;5031921;28;20464;-65
2021/07/07 12:23:19;;;;;;;21.20;19.80;;;28.40;45.80;;;;;;5031823;28;20448;-65
2021/07/07 12:25:46;;;;;;;19.87;18.97;;;28.00;46.80;;;;;;5031909;28;20480;-66
2021/07/07 12:28:13;;;;;;;20.40;19.40;;;27.80;47.00;;;;;;5030964;28;20449;-65
2021/07/07 12:30:40;;;;;;;19.27;18.57;;;28.30;46.70;;;;;;5031732;28;20829;-66
2021/07/07 12:33:07;;;;;;;20.23;19.33;;;32.80;43.80;;;;;;5031564;28;20447;-66
2021/07/07 12:35:34;;;;;;;20.90;19.95;;;36.60;37.70;;;;;;5031766;28;20466;-66